Time;durP1;ratioP1;P1;durP2;ratioP2;P2;SDS_P1;SDS_P2;PMS_P1;PMS_P2;Temp;Humidity;BMP_temperature;BMP_pressure;BME280_temperature;BME280_humidity;BME280_pressure;Samples;Min_cycle;Max_cycle;Signal;HPM_P1;HPM_P2
2023/10/29 00:01:15;;;;;;;3.33;2.13;;;;;;;;;;5014503;28;20274;-76
2023/10/29 00:03:40;;;;;;;2.10;1.90;;;;;;;;;;5006943;28;20181;-76
2023/10/29 00:06:06;;;;;;;3.07;2.10;;;;;;;;;;5005733;28;20195;-76
2023/10/29 00:08:31;;;;;;;3.23;2.03;;;;;;;;;;5005460;28;20264;-76
2023/10/29 00:10:56;;;;;;;2.10;1.57;;;;;;;;;;5002578;28;20187;-77
2023/10/29 00:13:25;;;;;;;3.33;2.03;;;;;;;;;;5020955;28;20176;-76
2023/10/29 00:15:50;;;;;;;5.80;2.07;;;;;;;;;;5009382;28;20189;-76
2023/10/29 00:18:16;;;;;;;1.83;1.50;;;;;;;;;;5022578;28;20176;-76
2023/10/29 00:20:41;;;;;;;4.47;1.90;;;;;;;;;;5005010;28;20266;-77
2023/10/29 00:23:07;;;;;;;2.80;2.00;;;;;;;;;;5011618;28;20181;-76
2023/10/29 00:25:32;;;;;;;2.37;1.67;;;;;;;;;;5006776;28;20270;-76
2023/10/29 00:27:57;;;;;;;1.50;1.40;;;;;;;;;;5006125;28;20242;-76
2023/10/29 00:30:22;;;;;;;2.80;1.93;;;;;;;;;;5011083;28;20251;-77
2023/10/29 00:32:48;;;;;;;4.10;1.83;;;;;;;;;;5007908;28;20238;-76
2023/10/29 00:35:13;;;;;;;3.33;1.90;;;;;;;;;;5007494;28;20533;-76
2023/10/29 00:37:38;;;;;;;2.10;1.63;;;;;;;;;;5000492;28;20198;-76
2023/10/29 00:40:04;;;;;;;1.60;1.50;;;;;;;;;;5006547;28;20231;-76
2023/10/29 00:44:58;;;;;;;2.50;1.60;;;;;;;;;;5018158;28;20243;-75
2023/10/29 00:47:24;;;;;;;2.10;1.63;;;;;;;;;;5024702;28;20179;-75
2023/10/29 00:49:50;;;;;;;1.80;1.40;;;;;;;;;;5020602;28;20179;-76
2023/10/29 00:52:15;;;;;;;5.53;2.40;;;;;;;;;;5038046;28;20272;-75
2023/10/29 00:54:40;;;;;;;2.40;1.73;;;;;;;;;;5022647;28;20221;-75
2023/10/29 00:57:06;;;;;;;2.23;1.57;;;;;;;;;;5026517;28;20173;-75
2023/10/29 00:59:34;;;;;;;3.60;1.77;;;;;;;;;;5025733;28;20178;-76
2023/10/29 01:01:59;;;;;;;2.70;1.40;;;;;;;;;;5025731;28;20188;-76
2023/10/29 01:04:24;;;;;;;1.60;1.40;;;;;;;;;;5026170;28;20200;-75
2023/10/29 01:06:49;;;;;;;2.33;1.50;;;;;;;;;;5026543;28;20188;-76
2023/10/29 01:09:15;;;;;;;2.03;1.60;;;;;;;;;;5018284;28;20199;-75
2023/10/29 01:11:40;;;;;;;1.60;1.50;;;;;;;;;;5027337;28;20210;-76
2023/10/29 01:14:06;;;;;;;1.50;1.40;;;;;;;;;;5024936;28;20181;-76
2023/10/29 01:16:31;;;;;;;1.60;1.30;;;;;;;;;;5021091;28;20180;-76
2023/10/29 01:18:57;;;;;;;2.93;1.80;;;;;;;;;;5042237;28;20251;-75
2023/10/29 01:21:22;;;;;;;3.23;1.93;;;;;;;;;;5027836;28;20179;-76
2023/10/29 01:31:25;;;;;;;4.67;1.83;;;;;;;;;;5027861;28;20280;-76
2023/10/29 01:33:50;;;;;;;1.90;1.43;;;;;;;;;;5026621;28;20181;-76
2023/10/29 01:36:15;;;;;;;1.90;1.50;;;;;;;;;;5026803;28;20208;-76
2023/10/29 01:38:40;;;;;;;3.20;1.63;;;;;;;;;;5025726;28;20249;-76
2023/10/29 01:41:06;;;;;;;2.40;2.20;;;;;;;;;;5024248;28;20184;-76
2023/10/29 01:43:31;;;;;;;2.93;1.90;;;;;;;;;;5028922;28;20195;-76
2023/10/29 01:45:56;;;;;;;6.30;1.90;;;;;;;;;;5029462;28;20195;-76
2023/10/29 01:48:23;;;;;;;1.77;1.30;;;;;;;;;;5025870;28;20191;-76
2023/10/29 01:50:50;;;;;;;1.90;1.60;;;;;;;;;;5026951;28;20179;-76
2023/10/29 01:53:15;;;;;;;1.80;1.70;;;;;;;;;;5026976;28;20189;-76
2023/10/29 01:55:40;;;;;;;5.20;2.00;;;;;;;;;;5022536;28;20240;-76
2023/10/29 01:58:05;;;;;;;3.03;1.60;;;;;;;;;;5024981;28;20473;-76
2023/10/29 02:00:31;;;;;;;3.10;1.90;;;;;;;;;;5024817;28;20190;-76
2023/10/29 02:02:56;;;;;;;1.97;1.60;;;;;;;;;;5024045;28;20175;-76
2023/10/29 02:05:21;;;;;;;2.20;1.40;;;;;;;;;;5026147;28;20282;-76
2023/10/29 02:07:46;;;;;;;2.80;1.83;;;;;;;;;;5027257;28;20199;-76
2023/10/29 02:10:12;;;;;;;1.77;1.43;;;;;;;;;;5027098;28;20171;-76
2023/10/29 02:12:37;;;;;;;2.07;1.80;;;;;;;;;;5028469;28;20180;-75
2023/10/29 02:15:03;;;;;;;2.83;1.80;;;;;;;;;;5028537;28;20176;-76
2023/10/29 02:17:28;;;;;;;2.40;1.53;;;;;;;;;;5028414;28;20202;-76
2023/10/29 02:19:55;;;;;;;1.60;1.50;;;;;;;;;;5028955;28;20580;-76
2023/10/29 02:22:20;;;;;;;2.90;1.97;;;;;;;;;;5031493;28;20183;-76
2023/10/29 02:24:45;;;;;;;2.57;1.70;;;;;;;;;;5028388;28;20199;-75
2023/10/29 02:27:11;;;;;;;2.17;1.70;;;;;;;;;;5014167;28;20184;-76
2023/10/29 02:29:36;;;;;;;3.10;1.43;;;;;;;;;;5024982;28;20238;-76
2023/10/29 02:32:01;;;;;;;5.90;1.70;;;;;;;;;;5018878;28;20180;-76
2023/10/29 02:34:26;;;;;;;3.13;1.83;;;;;;;;;;5024983;28;20179;-75
2023/10/29 02:36:52;;;;;;;1.40;1.30;;;;;;;;;;5020022;28;20211;-76
2023/10/29 02:39:17;;;;;;;1.90;1.47;;;;;;;;;;5023371;28;20259;-76
2023/10/29 02:41:42;;;;;;;3.00;1.60;;;;;;;;;;5013415;28;20303;-76
2023/10/29 02:44:07;;;;;;;1.93;1.53;;;;;;;;;;5017739;28;20274;-76
2023/10/29 02:46:35;;;;;;;1.30;1.20;;;;;;;;;;5014685;28;20263;-76
2023/10/29 02:49:00;;;;;;;1.63;1.40;;;;;;;;;;5020242;28;20218;-76
2023/10/29 02:51:25;;;;;;;3.33;1.73;;;;;;;;;;5016307;28;20206;-76
2023/10/29 02:53:50;;;;;;;1.43;1.30;;;;;;;;;;5014866;28;20187;-76
2023/10/29 02:56:15;;;;;;;1.43;1.33;;;;;;;;;;5019075;28;20179;-76
2023/10/29 02:58:41;;;;;;;2.13;1.60;;;;;;;;;;5019363;28;20184;-76
2023/10/29 03:01:07;;;;;;;1.63;1.53;;;;;;;;;;5012725;28;20187;-76
2023/10/29 03:03:33;;;;;;;2.77;1.40;;;;;;;;;;5013399;28;20188;-76
2023/10/29 03:05:58;;;;;;;1.43;1.33;;;;;;;;;;5014551;28;20195;-76
2023/10/29 03:08:24;;;;;;;1.50;1.40;;;;;;;;;;5017348;28;20558;-75
2023/10/29 03:10:50;;;;;;;2.50;1.50;;;;;;;;;;5014698;28;20262;-76
2023/10/29 03:13:15;;;;;;;2.83;1.57;;;;;;;;;;5013129;28;20242;-76
2023/10/29 03:15:40;;;;;;;2.73;1.73;;;;;;;;;;5014425;28;20212;-76
2023/10/29 03:18:05;;;;;;;3.43;1.37;;;;;;;;;;5018810;28;20196;-76
2023/10/29 03:20:31;;;;;;;1.90;1.33;;;;;;;;;;5016696;28;20193;-75
2023/10/29 03:22:56;;;;;;;1.43;1.33;;;;;;;;;;5010622;28;20215;-76
2023/10/29 03:25:21;;;;;;;3.10;1.10;;;;;;;;;;5011022;28;20264;-76
2023/10/29 03:27:46;;;;;;;1.23;1.10;;;;;;;;;;5016755;28;20190;-76
2023/10/29 03:30:12;;;;;;;1.37;1.27;;;;;;;;;;5010346;28;20220;-76
2023/10/29 03:32:37;;;;;;;1.33;1.23;;;;;;;;;;5020050;28;20173;-76
2023/10/29 03:35:04;;;;;;;2.03;1.60;;;;;;;;;;5013113;28;20180;-75
2023/10/29 03:37:29;;;;;;;2.27;1.50;;;;;;;;;;5018090;28;20177;-76
2023/10/29 03:39:54;;;;;;;2.03;1.50;;;;;;;;;;5015129;28;20195;-76
2023/10/29 03:42:19;;;;;;;1.47;1.37;;;;;;;;;;5011411;28;20187;-76
2023/10/29 03:44:45;;;;;;;1.63;1.20;;;;;;;;;;5008874;28;20191;-76
2023/10/29 03:47:10;;;;;;;2.67;1.60;;;;;;;;;;5012568;28;20192;-76
2023/10/29 03:49:35;;;;;;;2.27;1.40;;;;;;;;;;5018799;28;20205;-76
2023/10/29 03:52:00;;;;;;;1.43;1.33;;;;;;;;;;5017608;28;20204;-75
2023/10/29 03:54:25;;;;;;;2.77;1.40;;;;;;;;;;5012751;28;20197;-76
2023/10/29 03:56:51;;;;;;;2.90;1.40;;;;;;;;;;5016669;28;20181;-75
2023/10/29 03:59:16;;;;;;;2.23;1.40;;;;;;;;;;5014607;28;20603;-76
2023/10/29 04:01:41;;;;;;;2.80;1.40;;;;;;;;;;5014764;28;20181;-75
2023/10/29 04:04:08;;;;;;;1.50;1.20;;;;;;;;;;5014477;28;20408;-76
2023/10/29 04:06:33;;;;;;;2.20;1.20;;;;;;;;;;5011888;28;20186;-76
2023/10/29 04:08:58;;;;;;;1.63;1.30;;;;;;;;;;5018521;28;20196;-76
2023/10/29 04:11:23;;;;;;;1.10;1.10;;;;;;;;;;5018671;28;20180;-76
2023/10/29 04:13:48;;;;;;;1.53;1.37;;;;;;;;;;5018190;28;20184;-75
2023/10/29 04:16:14;;;;;;;1.47;1.17;;;;;;;;;;5013810;28;20169;-76
2023/10/29 04:18:39;;;;;;;1.47;1.37;;;;;;;;;;5016629;28;20264;-76
2023/10/29 04:21:06;;;;;;;1.70;1.60;;;;;;;;;;5018519;28;20181;-76
2023/10/29 04:23:31;;;;;;;1.67;1.50;;;;;;;;;;5016031;28;20540;-76
2023/10/29 04:25:56;;;;;;;3.33;1.60;;;;;;;;;;5019377;28;20288;-75
2023/10/29 04:28:21;;;;;;;1.70;1.30;;;;;;;;;;5022194;28;20210;-76
2023/10/29 04:30:48;;;;;;;2.13;1.30;;;;;;;;;;5017017;28;20232;-75
2023/10/29 04:33:13;;;;;;;2.30;1.30;;;;;;;;;;5015118;28;20176;-76
2023/10/29 04:35:38;;;;;;;2.70;1.30;;;;;;;;;;5014145;28;20589;-75
2023/10/29 04:38:04;;;;;;;1.20;1.13;;;;;;;;;;5012708;28;20184;-75
2023/10/29 04:40:29;;;;;;;1.93;1.17;;;;;;;;;;5016489;28;20242;-75
2023/10/29 04:42:54;;;;;;;2.17;1.23;;;;;;;;;;5008552;28;20208;-75
2023/10/29 04:45:19;;;;;;;1.73;1.13;;;;;;;;;;5010074;28;20340;-75
2023/10/29 04:47:45;;;;;;;1.70;1.20;;;;;;;;;;5013343;28;20253;-76
2023/10/29 04:50:10;;;;;;;2.33;1.20;;;;;;;;;;5009185;28;20308;-75
2023/10/29 04:52:35;;;;;;;1.30;1.20;;;;;;;;;;5010303;28;20279;-76
2023/10/29 04:55:01;;;;;;;4.30;1.53;;;;;;;;;;5012771;28;20259;-75
2023/10/29 04:57:27;;;;;;;2.10;1.47;;;;;;;;;;5013522;28;20193;-75
2023/10/29 04:59:52;;;;;;;1.40;1.30;;;;;;;;;;5012739;28;20492;-75
2023/10/29 05:02:18;;;;;;;1.30;1.20;;;;;;;;;;5015670;28;20191;-75
2023/10/29 05:04:43;;;;;;;1.30;1.20;;;;;;;;;;5017598;28;20438;-75
2023/10/29 05:07:08;;;;;;;1.73;1.30;;;;;;;;;;5015233;28;20188;-76
2023/10/29 05:09:34;;;;;;;2.77;1.50;;;;;;;;;;5011047;28;20209;-75
2023/10/29 05:11:59;;;;;;;2.77;1.30;;;;;;;;;;5016492;28;20312;-76
2023/10/29 05:14:24;;;;;;;3.13;1.20;;;;;;;;;;5015425;28;20171;-75
2023/10/29 05:16:49;;;;;;;1.70;1.60;;;;;;;;;;5013354;28;20192;-76
2023/10/29 05:19:14;;;;;;;2.33;1.47;;;;;;;;;;5010714;28;20185;-75
2023/10/29 05:21:40;;;;;;;1.50;1.20;;;;;;;;;;5019422;28;20192;-76
2023/10/29 05:24:05;;;;;;;2.13;1.23;;;;;;;;;;5010871;28;20184;-75
2023/10/29 05:26:30;;;;;;;2.40;1.30;;;;;;;;;;5021939;28;20217;-75
2023/10/29 05:28:56;;;;;;;1.53;1.27;;;;;;;;;;5011802;28;20279;-75
2023/10/29 05:31:21;;;;;;;1.47;1.10;;;;;;;;;;5011723;28;20219;-75
2023/10/29 05:33:46;;;;;;;1.17;1.07;;;;;;;;;;5014219;28;20224;-75
2023/10/29 05:36:11;;;;;;;1.53;1.43;;;;;;;;;;5014086;28;20272;-75
2023/10/29 05:38:37;;;;;;;2.53;1.50;;;;;;;;;;5009692;28;20188;-75
2023/10/29 05:41:02;;;;;;;1.40;1.00;;;;;;;;;;5013871;28;20188;-75
2023/10/29 05:43:27;;;;;;;1.30;1.20;;;;;;;;;;5021243;28;20228;-75
2023/10/29 05:45:52;;;;;;;1.50;1.40;;;;;;;;;;5012454;28;20204;-76
2023/10/29 05:48:17;;;;;;;1.43;1.20;;;;;;;;;;5010621;28;20220;-75
2023/10/29 05:50:43;;;;;;;2.87;1.50;;;;;;;;;;5019384;28;20181;-75
2023/10/29 05:53:08;;;;;;;1.87;1.30;;;;;;;;;;5017511;28;20263;-75
2023/10/29 05:55:33;;;;;;;1.50;1.40;;;;;;;;;;5018222;28;20221;-75
2023/10/29 05:57:58;;;;;;;2.23;1.83;;;;;;;;;;5018197;28;20216;-75
2023/10/29 06:00:24;;;;;;;2.00;1.23;;;;;;;;;;5019035;28;20185;-75
2023/10/29 06:02:49;;;;;;;2.23;1.17;;;;;;;;;;5022445;28;20184;-76
2023/10/29 06:05:14;;;;;;;1.70;1.20;;;;;;;;;;5017707;28;20187;-75
2023/10/29 06:07:43;;;;;;;3.50;1.23;;;;;;;;;;5022522;28;20184;-75
2023/10/29 06:10:10;;;;;;;2.13;1.90;;;;;;;;;;5013533;28;20182;-75
2023/10/29 06:12:35;;;;;;;2.13;1.43;;;;;;;;;;5016899;28;20174;-75
2023/10/29 06:15:00;;;;;;;1.63;0.90;;;;;;;;;;5017402;28;20184;-75
2023/10/29 06:17:26;;;;;;;1.83;1.17;;;;;;;;;;5025312;28;20188;-75
2023/10/29 06:19:51;;;;;;;1.23;1.13;;;;;;;;;;5013750;28;20256;-75
2023/10/29 06:22:16;;;;;;;1.50;1.20;;;;;;;;;;5021512;28;20180;-75
2023/10/29 06:24:41;;;;;;;2.00;1.20;;;;;;;;;;5022880;28;20507;-75
2023/10/29 06:27:07;;;;;;;2.03;1.30;;;;;;;;;;5016151;28;20212;-75
2023/10/29 06:29:32;;;;;;;1.27;1.00;;;;;;;;;;5010178;28;20377;-75
2023/10/29 06:31:57;;;;;;;1.57;1.20;;;;;;;;;;5017773;28;20175;-75
2023/10/29 06:34:22;;;;;;;1.57;1.13;;;;;;;;;;5011026;28;20264;-75
2023/10/29 06:36:48;;;;;;;1.27;0.90;;;;;;;;;;5019271;28;20185;-75
2023/10/29 06:39:13;;;;;;;1.23;1.13;;;;;;;;;;5018403;28;21002;-75
2023/10/29 06:41:38;;;;;;;1.23;1.13;;;;;;;;;;5024596;28;20197;-76
2023/10/29 06:44:03;;;;;;;1.40;1.30;;;;;;;;;;5013099;28;20194;-76
2023/10/29 06:46:30;;;;;;;2.47;1.43;;;;;;;;;;5024341;28;20189;-76
2023/10/29 06:48:55;;;;;;;2.67;1.53;;;;;;;;;;5020566;28;20223;-76
2023/10/29 06:51:20;;;;;;;1.00;1.00;;;;;;;;;;5016785;28;20213;-75
2023/10/29 06:53:46;;;;;;;1.30;1.20;;;;;;;;;;5012675;28;20194;-75
2023/10/29 06:56:11;;;;;;;1.33;1.23;;;;;;;;;;5021108;28;20208;-75
2023/10/29 06:58:38;;;;;;;2.00;1.50;;;;;;;;;;5015342;28;20355;-76
2023/10/29 07:01:04;;;;;;;1.83;1.43;;;;;;;;;;5025260;28;20195;-75
2023/10/29 07:03:29;;;;;;;1.67;1.47;;;;;;;;;;5014806;28;20276;-76
2023/10/29 07:06:01;;;;;;;1.73;1.30;;;;;;;;;;5016952;28;20185;-76
2023/10/29 07:08:27;;;;;;;1.23;1.13;;;;;;;;;;5017305;28;20213;-76
2023/10/29 07:10:55;;;;;;;1.40;1.30;;;;;;;;;;5013608;28;20177;-75
2023/10/29 07:13:21;;;;;;;1.37;1.17;;;;;;;;;;5013667;28;20181;-76
2023/10/29 07:15:46;;;;;;;1.40;1.30;;;;;;;;;;5020237;28;20203;-76
2023/10/29 07:18:11;;;;;;;3.63;2.10;;;;;;;;;;5011625;28;20193;-75
2023/10/29 07:20:36;;;;;;;1.57;1.30;;;;;;;;;;5018226;28;20181;-76
2023/10/29 07:23:01;;;;;;;2.40;1.13;;;;;;;;;;5015932;28;20236;-75
2023/10/29 07:25:27;;;;;;;1.40;1.30;;;;;;;;;;5018702;28;20205;-76
2023/10/29 07:27:52;;;;;;;1.73;1.10;;;;;;;;;;5016028;28;20275;-76
2023/10/29 07:30:17;;;;;;;0.90;0.90;;;;;;;;;;5013119;28;20225;-76
2023/10/29 07:32:42;;;;;;;1.10;1.10;;;;;;;;;;5024946;28;20215;-76
2023/10/29 07:35:07;;;;;;;1.87;1.40;;;;;;;;;;5015153;28;20265;-76
2023/10/29 07:37:33;;;;;;;1.73;1.30;;;;;;;;;;5015056;28;20184;-76
2023/10/29 07:39:58;;;;;;;0.90;0.90;;;;;;;;;;5020684;28;20184;-76
2023/10/29 07:42:24;;;;;;;1.30;1.20;;;;;;;;;;5012259;28;20205;-76
2023/10/29 07:44:50;;;;;;;2.33;1.10;;;;;;;;;;5017312;28;20193;-76
2023/10/29 07:47:15;;;;;;;1.73;1.47;;;;;;;;;;5014110;28;20180;-76
2023/10/29 07:49:41;;;;;;;1.30;1.20;;;;;;;;;;5021385;28;20205;-76
2023/10/29 07:52:06;;;;;;;1.33;1.23;;;;;;;;;;5018038;28;20210;-75
2023/10/29 07:54:31;;;;;;;1.50;1.37;;;;;;;;;;5023002;28;20181;-76
2023/10/29 07:56:57;;;;;;;1.37;1.27;;;;;;;;;;5020177;28;20167;-76
2023/10/29 07:59:22;;;;;;;4.20;1.47;;;;;;;;;;5017199;28;20185;-76
2023/10/29 08:01:47;;;;;;;2.13;1.20;;;;;;;;;;5019626;28;20206;-76
2023/10/29 08:04:12;;;;;;;1.67;1.30;;;;;;;;;;5014352;28;20183;-76
2023/10/29 08:06:37;;;;;;;2.23;1.90;;;;;;;;;;5014824;28;20187;-76
2023/10/29 08:09:03;;;;;;;1.80;1.70;;;;;;;;;;5024206;28;20231;-76
2023/10/29 08:11:28;;;;;;;2.00;1.80;;;;;;;;;;5017680;28;20164;-76
2023/10/29 08:13:53;;;;;;;2.40;1.93;;;;;;;;;;5012222;28;20265;-76
2023/10/29 08:16:18;;;;;;;11.73;1.70;;;;;;;;;;5013353;28;20182;-76
2023/10/29 08:18:44;;;;;;;1.47;1.37;;;;;;;;;;5010642;28;20190;-76
2023/10/29 08:21:09;;;;;;;1.50;1.40;;;;;;;;;;5015266;28;20264;-76
2023/10/29 08:23:34;;;;;;;3.60;2.23;;;;;;;;;;5012611;28;20555;-76
2023/10/29 08:26:00;;;;;;;3.07;1.43;;;;;;;;;;5015425;28;20202;-76
2023/10/29 08:28:27;;;;;;;1.33;1.23;;;;;;;;;;5009268;28;20878;-76
2023/10/29 08:30:52;;;;;;;1.63;1.53;;;;;;;;;;5011749;28;20221;-76
2023/10/29 08:33:19;;;;;;;1.80;1.60;;;;;;;;;;5020276;28;20185;-76
2023/10/29 08:35:44;;;;;;;3.00;2.13;;;;;;;;;;5018435;28;20268;-76
2023/10/29 08:38:10;;;;;;;3.47;1.80;;;;;;;;;;5014121;28;20233;-76
2023/10/29 08:40:35;;;;;;;1.97;1.60;;;;;;;;;;5010497;28;20191;-76
2023/10/29 08:43:03;;;;;;;2.13;1.20;;;;;;;;;;5014318;28;20225;-76
2023/10/29 08:45:28;;;;;;;2.40;1.20;;;;;;;;;;5011605;28;20187;-76
2023/10/29 08:47:53;;;;;;;3.50;1.47;;;;;;;;;;5019262;28;20244;-76
2023/10/29 08:50:19;;;;;;;1.73;1.57;;;;;;;;;;5011238;28;20194;-76
2023/10/29 08:52:44;;;;;;;6.10;5.77;;;;;;;;;;5011958;28;20180;-76
2023/10/29 08:55:09;;;;;;;1.80;1.70;;;;;;;;;;5011248;28;20188;-76
2023/10/29 08:57:35;;;;;;;2.30;2.20;;;;;;;;;;5024028;28;20194;-76
2023/10/29 09:00:00;;;;;;;4.87;3.97;;;;;;;;;;5012986;28;20187;-76
2023/10/29 09:02:25;;;;;;;2.93;2.20;;;;;;;;;;5012272;28;20191;-77
2023/10/29 09:04:56;;;;;;;2.90;2.40;;;;;;;;;;5015312;28;20248;-76
2023/10/29 09:07:22;;;;;;;2.07;1.87;;;;;;;;;;5015537;28;20217;-77
2023/10/29 09:09:48;;;;;;;2.10;1.97;;;;;;;;;;5018789;28;20205;-77
2023/10/29 09:12:13;;;;;;;2.53;1.90;;;;;;;;;;5017034;28;20247;-76
2023/10/29 09:14:38;;;;;;;2.10;1.80;;;;;;;;;;5012323;28;20266;-77
2023/10/29 09:17:04;;;;;;;2.03;1.83;;;;;;;;;;5011867;28;20180;-76
2023/10/29 09:19:29;;;;;;;2.20;2.00;;;;;;;;;;5021359;28;20174;-76
2023/10/29 09:21:54;;;;;;;3.83;2.10;;;;;;;;;;5017400;28;20177;-76
2023/10/29 09:24:19;;;;;;;3.23;2.00;;;;;;;;;;5017400;28;20206;-77
2023/10/29 09:26:44;;;;;;;2.00;1.90;;;;;;;;;;5018183;28;20202;-77
2023/10/29 09:29:10;;;;;;;2.10;1.90;;;;;;;;;;5018866;28;20202;-76
2023/10/29 09:31:35;;;;;;;7.03;1.90;;;;;;;;;;5016560;28;20198;-77
2023/10/29 09:34:01;;;;;;;2.13;1.80;;;;;;;;;;5017532;28;20179;-76
2023/10/29 09:36:26;;;;;;;2.97;2.00;;;;;;;;;;5014773;28;20186;-77
2023/10/29 09:38:51;;;;;;;2.30;2.10;;;;;;;;;;5020363;28;20190;-77
2023/10/29 09:41:19;;;;;;;2.67;2.40;;;;;;;;;;5016383;28;20215;-77
2023/10/29 09:43:46;;;;;;;2.30;2.10;;;;;;;;;;5015123;28;20214;-77
2023/10/29 09:46:12;;;;;;;3.67;2.60;;;;;;;;;;5016026;28;20183;-77
2023/10/29 09:48:37;;;;;;;3.37;2.83;;;;;;;;;;5014690;28;20241;-77
2023/10/29 09:51:04;;;;;;;2.47;2.27;;;;;;;;;;5015550;28;20304;-77
2023/10/29 09:53:30;;;;;;;3.00;2.63;;;;;;;;;;5018265;28;20283;-77
2023/10/29 09:55:56;;;;;;;5.33;2.77;;;;;;;;;;5020105;28;20192;-77
2023/10/29 09:58:23;;;;;;;5.07;3.10;;;;;;;;;;5021505;28;20183;-77
2023/10/29 10:00:49;;;;;;;3.03;2.43;;;;;;;;;;5015580;28;20269;-77
2023/10/29 10:03:15;;;;;;;2.50;2.30;;;;;;;;;;5012022;28;20219;-77
2023/10/29 10:05:41;;;;;;;3.87;2.80;;;;;;;;;;5019409;28;20221;-77
2023/10/29 10:08:06;;;;;;;2.57;2.37;;;;;;;;;;5012418;28;20210;-77
2023/10/29 10:10:37;;;;;;;3.93;2.50;;;;;;;;;;5012963;28;20189;-77
2023/10/29 10:13:04;;;;;;;2.60;2.40;;;;;;;;;;5019233;28;20204;-77
2023/10/29 10:15:29;;;;;;;2.60;2.20;;;;;;;;;;5020390;28;20201;-77
2023/10/29 10:18:01;;;;;;;2.50;2.30;;;;;;;;;;5021096;28;20172;-77
2023/10/29 10:20:27;;;;;;;2.70;1.90;;;;;;;;;;5014648;28;20179;-77
2023/10/29 10:22:56;;;;;;;2.87;1.83;;;;;;;;;;5024482;28;20186;-77
2023/10/29 10:25:23;;;;;;;17.90;11.03;;;;;;;;;;5012322;28;20225;-77
2023/10/29 10:27:49;;;;;;;3.53;3.20;;;;;;;;;;5023692;28;20182;-77
2023/10/29 10:30:31;;;;;;;2.30;2.10;;;;;;;;;;5024377;28;20209;-77
2023/10/29 10:33:20;;;;;;;2.43;1.77;;;;;;;;;;5010597;28;20194;-77
2023/10/29 10:35:47;;;;;;;3.43;1.70;;;;;;;;;;5018960;28;20174;-76
2023/10/29 10:38:13;;;;;;;4.33;1.63;;;;;;;;;;5022658;28;20229;-76
2023/10/29 10:40:39;;;;;;;1.50;1.40;;;;;;;;;;5017916;28;20183;-76
2023/10/29 10:43:04;;;;;;;2.00;1.80;;;;;;;;;;5023676;28;20189;-77
2023/10/29 10:45:31;;;;;;;3.10;1.80;;;;;;;;;;5016970;28;20189;-76
2023/10/29 10:47:57;;;;;;;1.87;1.70;;;;;;;;;;5023431;28;20178;-77
2023/10/29 10:50:24;;;;;;;2.53;1.70;;;;;;;;;;5020037;28;20174;-77
2023/10/29 10:52:49;;;;;;;3.80;1.87;;;;;;;;;;5016602;28;20225;-77
2023/10/29 10:55:15;;;;;;;1.80;1.70;;;;;;;;;;5016999;28;20203;-77
2023/10/29 10:57:40;;;;;;;3.00;1.90;;;;;;;;;;5012946;28;20236;-77
2023/10/29 11:00:10;;;;;;;2.80;2.10;;;;;;;;;;5015856;28;20190;-77
2023/10/29 11:02:37;;;;;;;4.10;2.23;;;;;;;;;;5014525;28;20182;-77
2023/10/29 11:05:04;;;;;;;3.17;2.07;;;;;;;;;;5020385;28;20190;-77
2023/10/29 11:07:30;;;;;;;3.07;1.93;;;;;;;;;;5020288;28;20181;-77
2023/10/29 11:09:58;;;;;;;3.23;2.10;;;;;;;;;;5024783;28;20202;-77
2023/10/29 11:12:23;;;;;;;6.30;4.43;;;;;;;;;;5021272;28;20184;-76
2023/10/29 11:15:15;;;;;;;6.70;5.07;;;;;;;;;;5019315;28;20175;-77
2023/10/29 11:17:50;;;;;;;3.00;2.27;;;;;;;;;;5011110;28;20186;-77
2023/10/29 11:20:34;;;;;;;7.47;5.20;;;;;;;;;;5022603;28;20171;-77
2023/10/29 11:23:05;;;;;;;7.73;6.10;;;;;;;;;;5019039;28;20179;-77
2023/10/29 11:25:31;;;;;;;4.70;3.50;;;;;;;;;;5015477;28;20213;-77
2023/10/29 11:27:56;;;;;;;2.57;2.10;;;;;;;;;;5013701;28;20180;-76
2023/10/29 11:30:22;;;;;;;5.50;4.60;;;;;;;;;;5009635;28;20246;-76
2023/10/29 11:33:07;;;;;;;2.83;2.20;;;;;;;;;;5024154;28;20221;-77
2023/10/29 11:35:33;;;;;;;2.63;1.93;;;;;;;;;;5000873;28;21536;-76
2023/10/29 11:38:00;;;;;;;2.53;2.30;;;;;;;;;;5013202;28;20258;-77
2023/10/29 11:40:44;;;;;;;1.93;1.77;;;;;;;;;;5016689;28;20187;-77
2023/10/29 11:43:20;;;;;;;1.93;1.73;;;;;;;;;;5016458;28;20183;-76
2023/10/29 11:45:51;;;;;;;1.80;1.70;;;;;;;;;;5016972;28;20172;-77
2023/10/29 11:48:16;;;;;;;2.50;1.73;;;;;;;;;;5016710;28;20292;-77
2023/10/29 11:51:01;;;;;;;2.20;1.97;;;;;;;;;;5013419;28;20203;-77
2023/10/29 11:53:27;;;;;;;4.77;2.00;;;;;;;;;;5009426;28;20185;-77
2023/10/29 11:55:52;;;;;;;3.07;2.10;;;;;;;;;;5014682;28;20200;-77
2023/10/29 11:58:22;;;;;;;1.70;1.60;;;;;;;;;;5010294;28;20191;-77
2023/10/29 12:00:47;;;;;;;2.10;1.90;;;;;;;;;;5010318;28;20319;-76
2023/10/29 12:03:17;;;;;;;1.70;1.60;;;;;;;;;;5016412;28;20304;-76
2023/10/29 12:05:46;;;;;;;2.67;1.80;;;;;;;;;;5013954;28;20181;-76
2023/10/29 12:08:12;;;;;;;1.67;1.40;;;;;;;;;;5013306;28;20205;-77
2023/10/29 12:10:44;;;;;;;2.33;1.60;;;;;;;;;;5017251;28;20182;-76
2023/10/29 12:13:09;;;;;;;3.93;1.70;;;;;;;;;;5009487;28;20184;-77
2023/10/29 12:15:34;;;;;;;2.50;1.50;;;;;;;;;;5014371;28;20193;-77
2023/10/29 12:18:00;;;;;;;4.03;3.63;;;;;;;;;;5016121;28;20182;-77
2023/10/29 12:20:26;;;;;;;6.53;4.30;;;;;;;;;;5011860;28;20176;-77
2023/10/29 12:22:57;;;;;;;3.70;2.00;;;;;;;;;;5011197;28;20510;-77
2023/10/29 12:25:23;;;;;;;2.37;2.07;;;;;;;;;;5018624;28;20208;-77
2023/10/29 12:27:49;;;;;;;2.40;2.20;;;;;;;;;;5019186;28;20184;-76
2023/10/29 12:30:33;;;;;;;3.77;2.50;;;;;;;;;;5010103;28;20229;-77
2023/10/29 12:33:37;;;;;;;2.60;1.80;;;;;;;;;;5014793;28;20171;-76
2023/10/29 12:36:04;;;;;;;5.30;2.90;;;;;;;;;;4911179;29;20185;-77
2023/10/29 12:38:29;;;;;;;2.27;2.07;;;;;;;;;;4910703;29;20279;-77
2023/10/29 12:41:01;;;;;;;1.60;1.50;;;;;;;;;;4906443;29;20296;-77
2023/10/29 12:43:35;;;;;;;1.83;1.40;;;;;;;;;;4908398;29;20194;-76
2023/10/29 12:46:01;;;;;;;2.53;1.80;;;;;;;;;;4913437;29;20184;-77
2023/10/29 12:48:26;;;;;;;4.20;2.47;;;;;;;;;;4906392;29;20218;-77
2023/10/29 12:50:52;;;;;;;6.20;4.63;;;;;;;;;;4913950;29;20276;-77
2023/10/29 12:53:21;;;;;;;1.60;1.50;;;;;;;;;;4912343;29;20189;-77
2023/10/29 12:55:46;;;;;;;4.17;2.30;;;;;;;;;;4912139;29;20195;-76
2023/10/29 12:58:11;;;;;;;8.60;5.23;;;;;;;;;;4909126;29;20179;-77
2023/10/29 13:00:37;;;;;;;6.23;3.37;;;;;;;;;;4906245;29;20193;-77
2023/10/29 13:03:04;;;;;;;2.77;2.43;;;;;;;;;;4908694;29;20185;-77
2023/10/29 13:05:30;;;;;;;5.53;4.23;;;;;;;;;;4919516;29;20277;-76
2023/10/29 13:07:57;;;;;;;2.67;1.53;;;;;;;;;;5019705;28;20295;-77
2023/10/29 13:10:22;;;;;;;2.17;1.97;;;;;;;;;;5009327;28;20223;-76
2023/10/29 13:12:47;;;;;;;2.10;1.30;;;;;;;;;;5016893;28;20183;-76
2023/10/29 13:15:13;;;;;;;2.27;1.70;;;;;;;;;;5016896;28;20208;-76
2023/10/29 13:17:38;;;;;;;2.80;1.50;;;;;;;;;;5012492;28;20187;-76
2023/10/29 13:20:05;;;;;;;1.47;1.30;;;;;;;;;;5014394;28;20188;-77
2023/10/29 13:22:31;;;;;;;2.13;1.43;;;;;;;;;;5017552;28;20520;-76
2023/10/29 13:24:58;;;;;;;4.70;1.60;;;;;;;;;;5019419;28;20196;-76
2023/10/29 13:27:24;;;;;;;2.87;1.70;;;;;;;;;;5016862;28;20277;-76
2023/10/29 13:29:49;;;;;;;2.03;1.60;;;;;;;;;;5018323;28;20290;-76
2023/10/29 13:32:15;;;;;;;1.77;1.43;;;;;;;;;;5020900;28;20189;-76
2023/10/29 13:34:41;;;;;;;3.50;1.70;;;;;;;;;;5024476;28;20203;-76
2023/10/29 13:37:06;;;;;;;3.87;2.20;;;;;;;;;;5017368;28;20200;-77
2023/10/29 13:39:31;;;;;;;2.73;1.83;;;;;;;;;;5015785;28;20196;-76
2023/10/29 13:41:56;;;;;;;4.40;1.60;;;;;;;;;;5018311;28;20207;-76
2023/10/29 13:44:23;;;;;;;3.13;1.90;;;;;;;;;;5016590;28;20168;-76
2023/10/29 13:46:48;;;;;;;3.57;2.57;;;;;;;;;;5015990;28;20184;-76
2023/10/29 13:49:13;;;;;;;2.93;2.10;;;;;;;;;;5017600;28;20227;-76
2023/10/29 13:51:41;;;;;;;2.10;1.90;;;;;;;;;;5019721;28;20174;-76
2023/10/29 13:54:08;;;;;;;1.50;1.40;;;;;;;;;;5013936;28;20191;-76
2023/10/29 13:56:33;;;;;;;4.63;1.70;;;;;;;;;;5017377;28;20185;-76
2023/10/29 13:58:59;;;;;;;1.53;1.43;;;;;;;;;;5022279;28;20207;-76
2023/10/29 14:01:24;;;;;;;2.73;1.60;;;;;;;;;;5011953;28;20181;-76
2023/10/29 14:03:50;;;;;;;1.90;1.80;;;;;;;;;;5022461;28;20229;-76
2023/10/29 14:06:16;;;;;;;2.50;1.63;;;;;;;;;;5015279;28;20203;-76
2023/10/29 14:08:41;;;;;;;3.20;2.40;;;;;;;;;;5010385;28;20224;-76
2023/10/29 14:11:06;;;;;;;2.10;1.70;;;;;;;;;;5021935;28;20175;-76
2023/10/29 14:13:31;;;;;;;2.77;1.73;;;;;;;;;;5025576;28;20174;-76
2023/10/29 14:15:57;;;;;;;3.13;2.93;;;;;;;;;;5023305;28;20188;-76
2023/10/29 14:18:23;;;;;;;3.37;1.57;;;;;;;;;;5022289;28;20192;-76
2023/10/29 14:20:48;;;;;;;2.63;2.40;;;;;;;;;;5023178;28;20184;-76
2023/10/29 14:23:13;;;;;;;2.87;1.63;;;;;;;;;;5022905;28;20181;-76
2023/10/29 14:25:39;;;;;;;1.57;1.20;;;;;;;;;;5015160;28;20244;-76
2023/10/29 14:28:04;;;;;;;1.90;1.07;;;;;;;;;;5014661;28;20197;-76
2023/10/29 14:30:30;;;;;;;2.07;1.80;;;;;;;;;;5018017;28;20252;-76
2023/10/29 14:32:55;;;;;;;2.33;1.10;;;;;;;;;;5019203;28;20181;-76
2023/10/29 14:35:20;;;;;;;1.40;1.30;;;;;;;;;;5012917;28;20179;-76
2023/10/29 14:37:46;;;;;;;2.00;1.53;;;;;;;;;;5015332;28;20174;-76
2023/10/29 14:40:11;;;;;;;6.13;1.63;;;;;;;;;;5018377;28;20186;-76
2023/10/29 14:42:36;;;;;;;1.87;1.30;;;;;;;;;;5022517;28;20198;-76
2023/10/29 14:45:02;;;;;;;1.70;1.60;;;;;;;;;;5012143;28;20187;-76
2023/10/29 14:47:28;;;;;;;2.00;1.30;;;;;;;;;;5015925;28;20183;-76